Time;durP1;ratioP1;P1;durP2;ratioP2;P2;SDS_P1;SDS_P2;PMS_P1;PMS_P2;Temp;Humidity;BMP_temperature;BMP_pressure;BME280_temperature;BME280_humidity;BME280_pressure;Samples;Min_cycle;Max_cycle;Signal;HPM_P1;HPM_P2
2022/08/23 00:01:21;;;;;;;3.58;3.08;;;;;;;25.68;48.75;100554.28;4962405;28;20050;-77
2022/08/23 00:03:52;;;;;;;5.10;2.80;;;;;;;25.71;48.89;100575.53;4962764;28;20058;-78
2022/08/23 00:06:20;;;;;;;3.38;2.60;;;;;;;25.57;49.18;100580.38;4963488;28;20302;-78
2022/08/23 00:08:49;;;;;;;4.55;3.40;;;;;;;25.43;49.45;100583.56;4962311;28;20544;-77
2022/08/23 00:11:31;;;;;;;13.18;3.95;;;;;;;25.23;50.19;100562.97;4962267;28;20151;-78
2022/08/23 00:14:07;;;;;;;4.88;3.08;;;;;;;25.24;50.19;100572.78;4968798;28;20068;-79
2022/08/23 00:16:34;;;;;;;5.25;2.75;;;;;;;25.21;50.50;100569.72;4977382;28;20116;-78
2022/08/23 00:19:06;;;;;;;8.73;3.08;;;;;;;25.25;50.25;100571.72;4981326;28;20054;-81
2022/08/23 00:21:35;;;;;;;5.22;3.10;;;;;;;25.14;50.20;100548.06;4968698;28;20482;-79
2022/08/23 00:24:04;;;;;;;13.45;3.20;;;;;;;25.21;50.07;100565.09;4974804;28;20081;-78
2022/08/23 00:26:50;;;;;;;5.90;3.35;;;;;;;25.18;49.54;100562.88;4981728;28;20231;-78
2022/08/23 00:29:17;;;;;;;6.97;3.15;;;;;;;25.22;50.07;100579.50;4980914;28;20165;-78
2022/08/23 00:31:44;;;;;;;3.10;2.80;;;;;;;25.07;50.23;100569.06;4981196;28;20305;-79
2022/08/23 00:34:11;;;;;;;4.50;3.00;;;;;;;25.02;50.59;100577.91;4981351;28;20089;-79
2022/08/23 00:36:39;;;;;;;5.18;3.15;;;;;;;24.88;50.81;100555.56;4981146;28;20571;-79
2022/08/23 00:39:06;;;;;;;8.75;3.55;;;;;;;24.90;50.99;100575.19;4981631;28;20153;-79
2022/08/23 00:41:34;;;;;;;3.40;2.72;;;;;;;24.85;51.14;100577.72;4981372;28;20410;-79
2022/08/23 00:49:38;;;;;;;4.28;3.13;;;;;;;24.70;51.82;100575.44;4982528;28;20092;-78
2022/08/23 00:52:13;;;;;;;7.03;3.75;;;;;;;24.46;52.08;100536.53;4980769;28;20173;-78
2022/08/23 00:54:41;;;;;;;8.52;3.92;;;;;;;24.60;52.27;100560.78;4981405;28;20251;-77
2022/08/23 00:57:12;;;;;;;4.68;3.42;;;;;;;24.68;52.54;100571.31;4982435;28;20236;-78
2022/08/23 00:59:39;;;;;;;5.35;3.30;;;;;;;24.34;52.25;100502.25;4970942;28;20675;-77
2022/08/23 01:02:07;;;;;;;4.38;3.38;;;;;;;24.73;52.40;100557.88;4962735;28;20672;-76
2022/08/23 01:04:40;;;;;;;6.72;3.78;;;;;;;24.73;52.41;100563.28;4965749;28;20051;-78
2022/08/23 01:07:16;;;;;;;8.10;3.53;;;;;;;24.54;52.69;100548.97;4965557;28;20660;-77
2022/08/23 01:09:46;;;;;;;5.72;3.75;;;;;;;24.55;53.14;100555.22;4966157;28;20156;-77
2022/08/23 01:12:22;;;;;;;5.50;3.80;;;;;;;24.57;53.41;100566.69;4967590;28;20050;-78
2022/08/23 01:15:06;;;;;;;4.57;3.63;;;;;;;24.59;53.70;100567.25;4965803;28;20107;-78
2022/08/23 01:18:04;;;;;;;5.95;2.88;;;;;;;24.53;53.40;100569.00;4965828;28;20229;-78
2022/08/23 01:20:41;;;;;;;4.80;3.33;;;;;;;24.19;53.43;100508.09;4966554;28;20664;-77
2022/08/23 01:23:20;;;;;;;3.63;2.92;;;;;;;24.48;53.30;100556.13;4969407;28;20473;-79
2022/08/23 01:25:46;;;;;;;5.50;3.38;;;;;;;24.45;52.62;100555.75;4983634;28;20305;-78
2022/08/23 01:28:13;;;;;;;6.18;4.10;;;;;;;24.46;52.40;100563.66;4984471;28;20058;-78
2022/08/23 01:30:42;;;;;;;3.92;3.50;;;;;;;24.38;52.85;100555.81;5000717;28;20173;-78
2022/08/23 01:33:09;;;;;;;11.80;4.13;;;;;;;24.45;52.82;100563.88;4984413;28;20655;-78
2022/08/23 01:35:40;;;;;;;3.45;2.92;;;;;;;24.42;52.57;100572.44;4985640;28;20439;-78
2022/08/23 01:38:07;;;;;;;4.55;3.30;;;;;;;24.29;52.72;100551.75;4984788;28;20132;-78
2022/08/23 01:40:35;;;;;;;3.22;2.92;;;;;;;24.26;52.40;100546.78;4983942;28;20536;-79
2022/08/23 01:43:03;;;;;;;3.33;2.92;;;;;;;24.16;52.40;100532.94;4983480;28;20813;-78
2022/08/23 01:45:31;;;;;;;3.65;2.75;;;;;;;24.02;52.40;100518.72;4983864;28;20236;-78
2022/08/23 01:47:59;;;;;;;3.40;3.10;;;;;;;24.27;52.74;100560.13;4984504;28;20699;-79
2022/08/23 01:50:26;;;;;;;2.88;2.63;;;;;;;24.21;52.75;100563.75;4984684;28;20116;-77
2022/08/23 01:52:53;;;;;;;4.00;2.50;;;;;;;24.09;53.04;100552.00;4968700;28;20124;-78
2022/08/23 01:55:20;;;;;;;3.13;2.83;;;;;;;24.13;52.96;100550.50;4984350;28;20053;-79
2022/08/23 01:57:51;;;;;;;2.90;2.63;;;;;;;24.15;52.93;100555.69;4984362;28;20045;-79
2022/08/23 02:00:22;;;;;;;2.97;2.67;;;;;;;24.14;53.19;100559.47;4968075;28;20072;-79
2022/08/23 02:02:48;;;;;;;5.33;3.30;;;;;;;24.02;53.39;100557.50;4963975;28;20566;-78
2022/08/23 02:05:15;;;;;;;3.95;2.88;;;;;;;23.99;53.66;100557.97;4964660;28;20172;-78
2022/08/23 02:07:45;;;;;;;4.90;2.88;;;;;;;24.01;53.97;100564.00;4964975;28;20455;-79
2022/08/23 02:10:12;;;;;;;6.25;3.60;;;;;;;23.95;54.37;100562.16;4966169;28;20081;-78
2022/08/23 02:12:39;;;;;;;5.43;3.13;;;;;;;23.91;54.66;100560.13;4964309;28;20718;-78
2022/08/23 02:15:06;;;;;;;4.30;3.85;;;;;;;24.03;54.86;100589.00;4964938;28;20074;-78
2022/08/23 02:17:33;;;;;;;6.35;4.03;;;;;;;23.88;54.70;100558.69;4964858;28;20066;-78
2022/08/23 02:20:01;;;;;;;7.88;4.10;;;;;;;24.21;54.86;100598.19;4966352;28;20113;-78
2022/08/23 02:22:28;;;;;;;3.90;3.00;;;;;;;24.24;54.50;100589.59;4966952;28;20089;-78
2022/08/23 02:24:55;;;;;;;4.63;3.17;;;;;;;24.22;55.07;100575.41;4965792;28;20058;-78
2022/08/23 02:27:22;;;;;;;5.05;3.63;;;;;;;24.22;54.17;100570.81;4964091;28;20465;-79
2022/08/23 02:29:49;;;;;;;8.32;3.75;;;;;;;24.68;53.93;100625.59;4964665;28;20395;-79
2022/08/23 02:32:18;;;;;;;5.97;3.70;;;;;;;24.70;54.25;100613.44;4964685;28;20058;-78
2022/08/23 02:34:46;;;;;;;5.13;4.03;;;;;;;24.31;54.11;100584.91;4966246;28;20058;-78
2022/08/23 02:37:30;;;;;;;9.77;3.88;;;;;;;24.16;54.53;100598.03;4966017;28;20054;-79
2022/08/23 02:39:57;;;;;;;10.38;4.20;;;;;;;23.90;54.73;100567.44;4964514;28;20073;-77
2022/08/23 02:42:24;;;;;;;8.77;5.00;;;;;;;23.88;54.90;100588.53;4980626;28;20066;-79
2022/08/23 02:44:50;;;;;;;5.10;3.70;;;;;;;23.99;55.25;100623.03;4964096;28;20050;-79
2022/08/23 02:47:17;;;;;;;7.15;4.13;;;;;;;23.82;55.46;100608.41;4964464;28;20116;-77
2022/08/23 02:49:44;;;;;;;8.23;3.47;;;;;;;23.75;55.84;100621.19;4964754;28;20054;-78
2022/08/23 02:52:11;;;;;;;6.07;3.65;;;;;;;23.71;56.11;100619.94;4979628;28;20061;-78
2022/08/23 02:54:38;;;;;;;4.43;3.33;;;;;;;23.75;55.99;100623.91;4964449;28;20540;-78
2022/08/23 02:57:05;;;;;;;4.47;3.33;;;;;;;23.68;56.15;100605.78;4963940;28;20133;-79
2022/08/23 02:59:31;;;;;;;5.10;3.58;;;;;;;23.89;55.96;100628.97;4976014;28;20551;-78
2022/08/23 03:01:58;;;;;;;6.53;4.57;;;;;;;23.57;55.79;100565.88;4983575;28;20062;-78
2022/08/23 03:04:25;;;;;;;9.05;4.88;;;;;;;23.84;55.96;100636.13;4983823;28;20046;-78
2022/08/23 03:06:52;;;;;;;5.43;4.55;;;;;;;23.87;55.64;100632.97;5000517;28;20050;-79
2022/08/23 03:09:19;;;;;;;10.70;5.10;;;;;;;23.92;55.44;100652.09;4987263;28;20488;-78
2022/08/23 03:11:48;;;;;;;14.48;5.03;;;;;;;23.77;56.28;100640.78;5003624;28;20212;-78
2022/08/23 03:14:15;;;;;;;5.78;5.15;;;;;;;23.60;56.82;100640.47;4987740;28;21024;-79
2022/08/23 03:16:43;;;;;;;7.50;4.10;;;;;;;23.33;57.28;100624.44;4986868;28;20252;-79
2022/08/23 03:19:09;;;;;;;5.90;5.03;;;;;;;23.31;57.54;100640.06;4987475;28;20147;-78
2022/08/23 03:21:37;;;;;;;6.85;5.20;;;;;;;23.13;57.91;100640.81;4987665;28;20053;-78
2022/08/23 03:24:04;;;;;;;6.07;4.68;;;;;;;22.92;58.34;100616.78;4974203;28;20046;-78
2022/08/23 03:26:36;;;;;;;5.95;4.30;;;;;;;22.77;58.86;100617.88;4967163;28;20058;-78
2022/08/23 03:29:03;;;;;;;4.78;4.10;;;;;;;22.86;59.10;100641.97;4968026;28;20156;-78
2022/08/23 03:31:29;;;;;;;8.45;4.50;;;;;;;22.88;59.08;100634.47;4967711;28;20145;-77
2022/08/23 03:33:57;;;;;;;11.38;4.00;;;;;;;22.80;59.09;100620.16;4982601;28;20231;-78
2022/08/23 03:36:24;;;;;;;6.50;4.32;;;;;;;22.76;58.97;100615.38;4968309;28;20129;-77
2022/08/23 03:38:54;;;;;;;8.38;4.80;;;;;;;22.85;59.18;100641.16;4966829;28;20533;-78
2022/08/23 03:41:21;;;;;;;5.25;4.10;;;;;;;22.84;59.38;100650.31;4967603;28;20177;-78
2022/08/23 03:43:49;;;;;;;4.63;3.63;;;;;;;22.87;59.34;100651.78;4967384;28;20050;-78
2022/08/23 03:46:22;;;;;;;5.15;3.80;;;;;;;22.71;59.53;100629.56;4983731;28;20050;-78
2022/08/23 03:48:54;;;;;;;4.85;3.40;;;;;;;22.91;59.90;100644.88;4983843;28;20089;-78
2022/08/23 03:51:22;;;;;;;4.28;3.70;;;;;;;22.91;58.37;100628.63;4968363;28;20050;-77
2022/08/23 03:53:50;;;;;;;8.95;4.20;;;;;;;23.28;58.05;100650.50;4966917;28;20585;-78
2022/08/23 03:56:24;;;;;;;5.88;4.18;;;;;;;23.35;57.68;100659.41;4966287;28;20164;-77
2022/08/23 03:58:51;;;;;;;6.38;3.70;;;;;;;23.27;57.58;100646.16;4971256;28;20707;-78
2022/08/23 04:01:18;;;;;;;3.78;3.17;;;;;;;23.08;57.54;100637.91;4987448;28;20145;-78
2022/08/23 04:03:47;;;;;;;7.15;3.33;;;;;;;22.76;57.64;100597.28;4985767;28;20097;-77
2022/08/23 04:06:15;;;;;;;4.45;3.90;;;;;;;23.08;57.67;100654.16;4985635;28;20081;-78
2022/08/23 04:08:42;;;;;;;4.88;3.85;;;;;;;23.08;57.67;100670.41;4986318;28;20151;-77
2022/08/23 04:11:11;;;;;;;7.22;3.30;;;;;;;22.88;57.55;100620.94;4986017;28;20183;-77
2022/08/23 04:13:41;;;;;;;10.63;3.35;;;;;;;22.78;57.59;100621.41;4987978;28;20053;-78
2022/08/23 04:16:08;;;;;;;7.93;3.47;;;;;;;23.13;57.65;100670.63;4985749;28;20591;-77
2022/08/23 04:18:35;;;;;;;4.82;3.38;;;;;;;23.23;57.75;100676.38;4984686;28;20141;-77
2022/08/23 04:21:06;;;;;;;6.50;2.90;;;;;;;23.35;56.43;100681.06;4986160;28;20342;-77
2022/08/23 04:23:33;;;;;;;3.97;2.70;;;;;;;23.21;55.95;100664.94;4979002;28;20238;-77
2022/08/23 04:25:59;;;;;;;3.30;3.00;;;;;;;23.07;55.16;100647.09;4971627;28;20054;-76
2022/08/23 04:28:28;;;;;;;6.75;2.80;;;;;;;23.02;55.13;100655.06;4988349;28;20062;-77
2022/08/23 04:30:55;;;;;;;3.03;2.67;;;;;;;23.12;55.55;100666.22;4987287;28;20113;-77
2022/08/23 04:33:22;;;;;;;4.43;2.88;;;;;;;23.16;55.89;100656.63;4987640;28;20089;-77
2022/08/23 04:35:49;;;;;;;6.75;2.10;;;;;;;23.44;54.80;100687.91;4987068;28;20062;-77
2022/08/23 04:38:15;;;;;;;4.68;2.20;;;;;;;23.47;54.11;100695.56;4986246;28;20529;-77
2022/08/23 04:43:37;;;;;;;5.63;3.60;;;;;;;23.57;54.45;100695.09;4994231;28;20054;-76
2022/08/23 04:46:04;;;;;;;5.93;2.55;;;;;;;23.68;54.60;100681.66;4986496;28;20108;-77
2022/08/23 04:48:31;;;;;;;3.38;2.70;;;;;;;23.83;54.82;100694.09;4986424;28;20085;-77
2022/08/23 04:50:58;;;;;;;7.75;3.45;;;;;;;23.75;54.63;100675.41;4986672;28;20081;-76
2022/08/23 04:53:24;;;;;;;6.53;3.03;;;;;;;23.81;54.46;100696.19;4986629;28;20054;-76
2022/08/23 04:55:51;;;;;;;5.75;3.45;;;;;;;23.74;54.31;100700.81;5000497;28;20049;-76
2022/08/23 04:58:18;;;;;;;4.38;2.28;;;;;;;24.04;56.34;100695.56;5005520;28;20062;-77
2022/08/23 05:00:49;;;;;;;4.85;3.47;;;;;;;23.99;54.27;100704.38;5006252;28;20100;-76
2022/08/23 05:03:17;;;;;;;4.20;3.10;;;;;;;23.85;54.22;100694.69;5005361;28;20517;-77
2022/08/23 05:05:44;;;;;;;5.00;3.00;;;;;;;23.77;54.43;100700.41;5005809;28;20054;-77
2022/08/23 05:08:11;;;;;;;4.57;2.97;;;;;;;23.48;54.95;100681.00;5005308;28;20104;-76
2022/08/23 05:10:37;;;;;;;4.95;3.03;;;;;;;23.42;55.41;100714.38;5006761;28;20104;-76
2022/08/23 05:13:04;;;;;;;5.60;3.28;;;;;;;23.14;55.62;100680.38;5006076;28;20563;-78
2022/08/23 05:15:30;;;;;;;9.15;3.28;;;;;;;22.75;55.71;100617.28;5006786;28;20137;-78
2022/08/23 05:17:57;;;;;;;6.55;3.30;;;;;;;23.31;56.01;100698.84;5005502;28;20469;-76
2022/08/23 05:20:24;;;;;;;5.38;3.00;;;;;;;23.24;55.69;100707.81;5021904;28;20045;-76
2022/08/23 05:22:51;;;;;;;4.20;2.85;;;;;;;23.15;55.88;100698.28;5002193;28;20096;-76
2022/08/23 05:25:18;;;;;;;8.32;3.67;;;;;;;23.25;55.82;100700.50;4985316;28;20558;-77
2022/08/23 05:27:45;;;;;;;5.35;3.47;;;;;;;23.36;55.38;100717.97;4985724;28;20097;-76
2022/08/23 05:30:12;;;;;;;4.55;3.03;;;;;;;23.39;55.65;100703.97;5001547;28;20473;-76
2022/08/23 05:32:40;;;;;;;4.22;2.88;;;;;;;23.42;55.15;100714.38;5001992;28;20489;-78
2022/08/23 05:35:08;;;;;;;6.60;3.03;;;;;;;22.69;54.82;100580.25;5005297;28;20101;-76
2022/08/23 05:37:34;;;;;;;3.65;2.90;;;;;;;23.48;54.51;100696.44;5004949;28;20065;-77
2022/08/23 05:40:01;;;;;;;4.35;2.47;;;;;;;23.67;53.92;100717.13;5005379;28;20049;-76
2022/08/23 05:42:28;;;;;;;7.07;2.90;;;;;;;23.57;53.14;100693.22;5002638;28;20586;-77
2022/08/23 05:44:56;;;;;;;6.80;2.65;;;;;;;23.48;52.71;100664.75;5021205;28;20058;-76
2022/08/23 05:47:25;;;;;;;9.00;3.28;;;;;;;23.92;52.04;100714.44;5021553;28;20115;-76
2022/08/23 05:49:52;;;;;;;6.30;2.92;;;;;;;23.76;52.72;100688.72;5021813;28;20555;-78
2022/08/23 05:52:19;;;;;;;3.90;2.40;;;;;;;23.89;52.65;100707.59;5021512;28;20501;-77
2022/08/23 05:54:46;;;;;;;3.85;2.58;;;;;;;24.02;52.37;100720.19;5005407;28;20347;-77
2022/08/23 05:57:12;;;;;;;6.30;2.45;;;;;;;24.06;51.54;100713.28;5021367;28;20108;-77
2022/08/23 05:59:40;;;;;;;5.13;2.63;;;;;;;24.10;51.96;100733.50;5005259;28;20131;-78
2022/08/23 06:02:08;;;;;;;3.35;2.55;;;;;;;23.97;52.71;100695.63;5005008;28;20533;-77
2022/08/23 06:04:35;;;;;;;4.22;2.78;;;;;;;24.29;52.42;100728.06;4985040;28;20105;-78
2022/08/23 06:07:01;;;;;;;11.23;2.90;;;;;;;24.29;52.21;100717.22;4983337;28;20086;-77
2022/08/23 06:09:28;;;;;;;5.35;2.33;;;;;;;24.36;52.10;100731.56;4978075;28;20101;-76
2022/08/23 06:11:55;;;;;;;12.45;2.40;;;;;;;24.44;52.50;100733.16;5005116;28;20054;-77
2022/08/23 06:14:22;;;;;;;5.10;2.58;;;;;;;24.35;51.72;100710.91;5003890;28;20046;-76
2022/08/23 06:16:50;;;;;;;6.97;2.60;;;;;;;24.62;51.88;100740.50;5004808;28;20053;-76
2022/08/23 06:19:22;;;;;;;3.53;2.63;;;;;;;24.62;52.15;100730.47;5004920;28;20673;-76
2022/08/23 06:21:50;;;;;;;6.53;2.95;;;;;;;24.66;51.43;100730.84;4997772;28;20086;-76
2022/08/23 06:24:17;;;;;;;6.15;2.97;;;;;;;24.76;51.73;100731.16;5001485;28;20529;-76
2022/08/23 06:26:44;;;;;;;5.25;2.90;;;;;;;24.88;51.32;100729.34;5008526;28;20053;-76
2022/08/23 06:29:14;;;;;;;3.78;2.53;;;;;;;24.95;51.59;100732.81;5005591;28;20042;-77
2022/08/23 06:31:47;;;;;;;3.50;3.15;;;;;;;25.04;50.76;100741.44;5004821;28;20060;-77
2022/08/23 06:34:35;;;;;;;6.03;3.10;;;;;;;25.12;50.51;100743.88;5005773;28;20054;-77
2022/08/23 06:37:08;;;;;;;4.90;2.72;;;;;;;25.11;49.87;100744.09;5020987;28;20089;-76
2022/08/23 06:39:37;;;;;;;6.13;2.90;;;;;;;25.12;51.07;100740.31;5005666;28;20305;-77
2022/08/23 06:42:07;;;;;;;6.38;3.08;;;;;;;25.14;50.36;100744.44;5006557;28;20074;-77
2022/08/23 06:44:54;;;;;;;13.18;3.25;;;;;;;25.14;49.98;100738.19;4988368;28;20058;-77
2022/08/23 06:47:21;;;;;;;4.50;2.60;;;;;;;25.17;49.95;100743.19;4988660;28;20085;-77
2022/08/23 06:49:49;;;;;;;4.28;2.92;;;;;;;25.34;49.62;100765.13;4989084;28;20047;-77
2022/08/23 06:52:24;;;;;;;2.60;2.20;;;;;;;25.26;49.52;100739.09;4989395;28;20042;-79
2022/08/23 06:54:51;;;;;;;4.40;2.92;;;;;;;25.37;49.69;100770.09;4989730;28;20654;-79
2022/08/23 06:57:19;;;;;;;5.82;2.58;;;;;;;25.26;48.33;100749.97;4989614;28;20195;-80
2022/08/23 06:59:47;;;;;;;6.15;3.13;;;;;;;25.46;48.07;100767.88;4991822;28;20399;-79
2022/08/23 07:02:14;;;;;;;3.85;2.40;;;;;;;25.43;47.91;100762.91;4969727;28;20482;-80
2022/08/23 07:04:41;;;;;;;5.10;2.90;;;;;;;25.61;47.47;100787.34;4970093;28;20343;-81
2022/08/23 07:07:09;;;;;;;3.88;2.70;;;;;;;25.56;47.91;100779.03;4986371;28;20318;-78
2022/08/23 07:09:39;;;;;;;6.63;3.75;;;;;;;25.59;48.58;100778.56;4970003;28;20078;-81
2022/08/23 07:12:06;;;;;;;7.68;3.50;;;;;;;25.13;48.55;100706.66;4969699;28;20451;-80
2022/08/23 07:14:33;;;;;;;4.38;3.53;;;;;;;25.35;48.16;100728.75;4969651;28;20105;-81
2022/08/23 07:17:02;;;;;;;7.15;2.80;;;;;;;25.46;48.74;100746.13;4985808;28;20138;-82
2022/08/23 07:19:32;;;;;;;5.05;3.20;;;;;;;25.83;48.18;100794.94;4985819;28;20513;-80
2022/08/23 07:22:00;;;;;;;5.95;3.25;;;;;;;25.85;48.09;100807.25;4971186;28;20145;-79
2022/08/23 07:24:28;;;;;;;3.42;2.85;;;;;;;25.72;48.00;100786.50;5000978;28;20045;-79
2022/08/23 07:27:02;;;;;;;4.80;2.38;;;;;;;25.76;47.69;100776.84;5009456;28;20056;-81
2022/08/23 07:29:29;;;;;;;8.57;3.00;;;;;;;26.00;47.13;100807.69;5025081;28;20096;-80
2022/08/23 07:31:56;;;;;;;3.70;3.15;;;;;;;25.98;46.91;100817.13;5008475;28;20230;-79
2022/08/23 07:34:24;;;;;;;4.60;2.67;;;;;;;26.07;46.86;100802.13;4995194;28;20050;-80
2022/08/23 07:36:53;;;;;;;3.95;2.88;;;;;;;26.16;46.95;100817.03;4988183;28;20061;-79
2022/08/23 07:39:22;;;;;;;5.43;2.58;;;;;;;26.12;47.00;100820.44;4988541;28;20070;-79
2022/08/23 07:41:51;;;;;;;7.18;3.13;;;;;;;26.07;47.38;100815.75;4988618;28;20054;-79
2022/08/23 07:44:18;;;;;;;5.78;3.47;;;;;;;25.65;48.01;100753.16;4990127;28;20125;-78
2022/08/23 07:46:51;;;;;;;6.72;2.92;;;;;;;26.15;47.84;100826.25;4988555;28;20557;-78
2022/08/23 07:49:18;;;;;;;3.67;2.65;;;;;;;26.19;48.06;100832.91;4988228;28;20050;-78
2022/08/23 07:51:49;;;;;;;5.97;3.20;;;;;;;26.29;47.36;100809.69;4988313;28;20057;-79
2022/08/23 07:54:17;;;;;;;2.47;2.28;;;;;;;26.41;46.90;100824.19;4988111;28;20047;-79
2022/08/23 07:56:45;;;;;;;4.38;2.55;;;;;;;26.48;45.97;100830.31;4982974;28;20054;-79
2022/08/23 07:59:12;;;;;;;7.45;2.92;;;;;;;26.37;45.80;100817.53;4979226;28;20276;-79
2022/08/23 08:01:42;;;;;;;4.30;3.03;;;;;;;25.93;46.36;100749.00;4976914;28;20501;-79
2022/08/23 08:04:09;;;;;;;10.43;3.50;;;;;;;26.16;47.02;100808.03;4980408;28;20141;-79
2022/08/23 08:06:46;;;;;;;6.03;3.40;;;;;;;26.36;46.97;100832.19;4978421;28;20074;-79
2022/08/23 08:09:33;;;;;;;3.58;2.78;;;;;;;26.39;46.66;100837.19;4979357;28;20050;-80
2022/08/23 08:12:00;;;;;;;4.00;2.92;;;;;;;26.49;46.37;100848.31;4976849;28;20057;-79
2022/08/23 08:14:27;;;;;;;8.25;2.88;;;;;;;26.57;46.23;100849.88;4966593;28;20124;-79
2022/08/23 08:16:55;;;;;;;4.97;2.90;;;;;;;26.55;46.29;100846.56;5002805;28;20065;-80
2022/08/23 08:19:22;;;;;;;9.50;3.55;;;;;;;26.33;46.28;100816.34;4991217;28;20054;-79
2022/08/23 08:21:48;;;;;;;8.35;3.30;;;;;;;26.31;46.49;100835.66;4987741;28;20135;-80
2022/08/23 08:24:18;;;;;;;6.20;2.63;;;;;;;26.43;46.30;100854.69;5002249;28;20042;-80
2022/08/23 08:26:45;;;;;;;6.40;3.15;;;;;;;26.49;46.16;100864.66;5008422;28;20646;-79
2022/08/23 08:29:13;;;;;;;5.72;3.13;;;;;;;26.56;46.17;100864.56;5009700;28;20124;-80
2022/08/23 08:31:42;;;;;;;7.40;2.88;;;;;;;26.61;46.15;100864.69;5010136;28;20046;-80
2022/08/23 08:34:10;;;;;;;4.13;3.15;;;;;;;26.66;46.83;100869.44;5007449;28;20053;-80
2022/08/23 08:36:41;;;;;;;4.05;3.20;;;;;;;26.61;46.78;100851.88;5007108;28;20056;-81
2022/08/23 08:39:13;;;;;;;7.90;2.92;;;;;;;26.79;46.54;100863.72;5007170;28;20050;-80
2022/08/23 08:42:08;;;;;;;7.78;3.30;;;;;;;26.89;46.42;100874.84;5007445;28;20498;-80
2022/08/23 08:44:46;;;;;;;2.50;2.30;;;;;;;27.05;46.53;100868.66;5023705;28;20104;-79
2022/08/23 08:47:18;;;;;;;3.40;3.08;;;;;;;26.32;46.12;100743.94;5007209;28;20042;-80
2022/08/23 08:50:04;;;;;;;8.18;2.90;;;;;;;27.21;46.16;100877.19;5008141;28;20342;-81
2022/08/23 08:52:46;;;;;;;8.40;3.15;;;;;;;27.14;45.75;100838.31;5007278;28;20054;-81
2022/08/23 08:55:19;;;;;;;3.83;2.72;;;;;;;27.20;46.23;100851.03;4997854;28;20178;-82
2022/08/23 08:57:50;;;;;;;5.63;3.20;;;;;;;27.24;46.08;100866.66;4981360;28;20052;-80
2022/08/23 09:00:31;;;;;;;3.63;2.90;;;;;;;26.91;45.88;100812.78;4986175;28;20058;-81
2022/08/23 09:03:03;;;;;;;5.43;3.57;;;;;;;26.88;45.67;100802.38;4975628;28;20394;-81
2022/08/23 09:05:33;;;;;;;4.03;3.25;;;;;;;27.35;45.02;100883.22;4977930;28;20994;-81
2022/08/23 09:08:33;;;;;;;8.18;4.07;;;;;;;27.33;45.08;100864.38;4970331;28;20241;-80
2022/08/23 09:11:22;;;;;;;5.43;3.42;;;;;;;27.37;45.21;100873.72;4967843;28;20050;-81
2022/08/23 09:13:52;;;;;;;6.10;3.25;;;;;;;27.58;44.65;100871.44;4967581;28;20051;-81
2022/08/23 09:16:31;;;;;;;4.72;2.63;;;;;;;27.67;44.44;100878.97;4967129;28;20054;-81
2022/08/23 09:19:01;;;;;;;3.75;3.45;;;;;;;27.81;44.91;100876.75;4967228;28;20259;-80
2022/08/23 09:21:39;;;;;;;8.55;3.13;;;;;;;27.90;43.94;100875.34;4968271;28;20280;-79
2022/08/23 09:24:06;;;;;;;5.43;3.25;;;;;;;27.77;43.69;100851.06;4980240;28;20051;-79
2022/08/23 09:26:32;;;;;;;3.33;2.90;;;;;;;28.08;42.95;100882.47;4986507;28;20046;-79
2022/08/23 09:29:30;;;;;;;9.38;3.10;;;;;;;28.17;41.96;100862.97;4986552;28;20153;-80
2022/08/23 09:32:03;;;;;;;7.35;2.90;;;;;;;28.41;42.58;100874.56;4979008;28;20057;-79
2022/08/23 09:34:29;;;;;;;4.85;3.25;;;;;;;28.56;42.48;100872.09;4986083;28;20422;-79
2022/08/23 09:37:22;;;;;;;4.25;3.35;;;;;;;28.73;42.92;100885.72;4986156;28;20069;-79
2022/08/23 09:40:11;;;;;;;4.90;3.35;;;;;;;28.99;42.24;100881.47;4987500;28;20050;-79
2022/08/23 09:42:39;;;;;;;5.82;3.30;;;;;;;29.14;41.39;100884.44;4986468;28;20482;-79
2022/08/23 09:45:49;;;;;;;3.72;3.20;;;;;;;29.24;40.47;100891.13;4985990;28;20548;-79
2022/08/23 09:48:43;;;;;;;10.27;3.60;;;;;;;29.17;41.01;100855.75;4980908;28;20051;-79
2022/08/23 09:51:23;;;;;;;4.30;3.00;;;;;;;29.11;40.24;100846.69;4986129;28;20065;-80
2022/08/23 09:54:06;;;;;;;5.43;3.33;;;;;;;29.35;39.78;100871.03;4985930;28;20453;-80
2022/08/23 09:56:37;;;;;;;3.70;3.40;;;;;;;29.55;40.07;100887.66;4986235;28;20818;-80
2022/08/23 09:59:39;;;;;;;4.90;3.38;;;;;;;29.57;39.80;100869.09;4993751;28;20494;-80
2022/08/23 10:02:14;;;;;;;5.30;3.60;;;;;;;29.87;39.51;100892.41;5005043;28;20058;-80
2022/08/23 10:04:46;;;;;;;4.38;3.03;;;;;;;30.09;39.36;100891.53;4987489;28;20065;-81
2022/08/23 10:07:38;;;;;;;3.60;3.17;;;;;;;30.23;38.17;100895.50;4985172;28;20078;-80
2022/08/23 10:10:29;;;;;;;5.47;3.40;;;;;;;30.26;37.58;100897.75;4987166;28;20050;-80
2022/08/23 10:12:57;;;;;;;4.78;3.28;;;;;;;30.34;38.07;100891.81;4985811;28;20046;-80
2022/08/23 10:15:44;;;;;;;4.15;3.60;;;;;;;30.33;37.28;100870.97;4987250;28;20478;-81
2022/08/23 10:18:25;;;;;;;9.52;3.33;;;;;;;30.73;37.15;100894.28;4990161;28;20050;-81
2022/08/23 10:21:17;;;;;;;3.65;2.92;;;;;;;30.61;36.84;100831.47;4989858;28;20498;-80
2022/08/23 10:24:08;;;;;;;4.72;3.45;;;;;;;30.56;36.68;100801.31;5000687;28;20123;-79
2022/08/23 10:26:43;;;;;;;6.82;3.05;;;;;;;30.94;35.99;100845.91;5010553;28;20111;-81
2022/08/23 10:29:36;;;;;;;4.35;3.88;;;;;;;31.19;35.30;100880.03;5009603;28;20483;-79
2022/08/23 10:32:23;;;;;;;3.45;2.83;;;;;;;31.16;35.81;100845.72;5009840;28;20429;-82
2022/08/23 10:35:14;;;;;;;4.53;3.28;;;;;;;31.70;35.77;100903.03;4998273;28;20054;-80
2022/08/23 10:38:05;;;;;;;3.65;2.83;;;;;;;31.71;34.77;100877.22;5007329;28;20399;-80
2022/08/23 10:40:34;;;;;;;4.90;3.22;;;;;;;31.87;34.12;100883.56;4990523;28;20107;-81
2022/08/23 10:43:24;;;;;;;2.17;1.98;;;;;;;32.17;33.72;100890.22;5009531;28;20065;-80
2022/08/23 10:45:55;;;;;;;7.30;2.78;;;;;;;32.48;32.73;100885.56;5005218;28;20046;-80
2022/08/23 10:48:53;;;;;;;3.45;2.78;;;;;;;32.55;32.96;100891.63;4985661;28;20081;-81
2022/08/23 10:51:24;;;;;;;8.93;2.67;;;;;;;32.67;32.43;100894.06;4969899;28;20547;-79
2022/08/23 10:53:59;;;;;;;9.15;2.83;;;;;;;32.74;32.05;100889.09;4992964;28;20050;-80
2022/08/23 10:56:27;;;;;;;2.95;2.75;;;;;;;32.88;31.93;100897.59;4989462;28;20124;-81
2022/08/23 10:58:59;;;;;;;3.00;2.50;;;;;;;32.84;31.87;100895.69;4994586;28;20068;-80
2022/08/23 11:01:53;;;;;;;5.10;2.85;;;;;;;32.66;31.78;100875.09;5008707;28;20263;-79
2022/08/23 11:04:45;;;;;;;5.53;2.97;;;;;;;32.85;32.49;100878.91;4988943;28;20236;-80
2022/08/23 11:07:33;;;;;;;3.80;2.45;;;;;;;33.03;31.66;100885.75;5008524;28;20399;-79
2022/08/23 11:10:23;;;;;;;3.50;2.17;;;;;;;33.17;31.27;100875.00;5025077;28;20080;-80
2022/08/23 11:13:00;;;;;;;4.78;2.30;;;;;;;33.51;31.34;100874.28;5008551;28;20057;-80
2022/08/23 11:15:37;;;;;;;3.78;2.70;;;;;;;33.59;30.83;100870.94;5008137;28;20104;-80
2022/08/23 11:18:33;;;;;;;2.20;2.00;;;;;;;33.56;30.30;100827.50;5008618;28;20053;-81
2022/08/23 11:21:18;;;;;;;4.57;2.35;;;;;;;33.61;29.92;100791.69;5000151;28;20045;-80
2022/08/23 11:23:47;;;;;;;7.22;2.42;;;;;;;34.26;29.68;100894.19;4998179;28;20054;-81
2022/08/23 11:26:21;;;;;;;4.07;2.42;;;;;;;34.34;28.83;100880.91;4988379;28;20303;-80
2022/08/23 11:28:50;;;;;;;3.50;2.38;;;;;;;34.34;29.54;100872.63;4994745;28;20046;-81
2022/08/23 11:31:33;;;;;;;2.75;2.55;;;;;;;34.18;29.46;100859.00;5008097;28;20100;-80
2022/08/23 11:34:04;;;;;;;3.00;2.08;;;;;;;33.53;29.57;100762.81;5008144;28;20096;-80
2022/08/23 11:36:32;;;;;;;;;;;;;;;34.16;29.73;100887.97;5009828;28;20088;-81
2022/08/23 11:39:05;;;;;;;4.85;2.40;;;;;;;34.09;30.27;100869.00;5007735;28;19976;-80
2022/08/23 11:41:54;;;;;;;2.63;1.95;;;;;;;34.42;29.55;100888.53;5008325;28;20508;-81
2022/08/23 11:44:26;;;;;;;1.98;1.80;;;;;;;34.58;29.33;100881.78;5010312;28;20050;-80
2022/08/23 11:46:54;;;;;;;2.22;2.05;;;;;;;34.76;28.84;100883.03;5004416;28;20046;-80
2022/08/23 11:49:56;;;;;;;3.55;2.45;;;;;;;34.65;28.48;100843.69;4988347;28;20112;-80
2022/08/23 11:52:28;;;;;;;5.22;2.22;;;;;;;35.17;28.73;100892.78;5004309;28;20135;-81
2022/08/23 11:55:13;;;;;;;7.30;2.00;;;;;;;34.87;28.27;100828.56;4987823;28;20047;-80